Flight Track Log - Related Links

Times and Time Zones

All times are in EDT time to prevent confusion due to time zone crossing. See the SWA2058 flight status page for this flight to view local times or setup timezone preferences in your user account.

Time Position Orientation Groundspeed Altitude Reporting Facility
EDT Latitude Longitude Course Direction KTS MPH feet Rate Location/Type
Sat 12:00:13 PM 32.7567 -117.2850 277° West 198 228 3,000  Level Los Angeles Center
Sat 12:01:15 PM 32.7064 -117.3194 210° Southwest 239 275 5,400 3,339 Climbing Los Angeles Center
Sat 12:02:17 PM 32.6494 -117.2342 128° Southeast 286 329 9,900 3,194 Climbing Los Angeles Center
Sat 12:03:19 PM 32.6331 -117.1272 100° East 323 372 12,000 2,565 Climbing Los Angeles Center
Sat 12:04:21 PM 32.6150 -117.0086 100° East 355 409 15,200 2,829 Climbing Los Angeles Center
Sat 12:05:22 PM 32.6203 -116.8819 87° East 384 442 17,800 2,537 Climbing Los Angeles Center
Sat 12:06:24 PM 32.6331 -116.7503 83° East 404 465 20,400 2,468 Climbing Los Angeles Center
Sat 12:07:26 PM 32.6461 -116.6156 83° East 415 478 22,900 2,468 Climbing Los Angeles Center
Sat 12:08:28 PM 32.6611 -116.4503 84° East 423 487 25,500 2,146 Climbing Los Angeles Center
Sat 12:09:29 PM 32.6756 -116.3061 83° East 444 511 27,300 1,659 Climbing Los Angeles Center
Sat 12:10:31 PM 32.6897 -116.1586 83° East 455 524 28,900 1,412 Climbing Los Angeles Center
Sat 12:11:45 PM 32.7036 -116.0044 84° East 472 543 30,500 2,074 Climbing Los Angeles Center
Sat 12:12:47 PM 32.7236 -115.7936 84° East 461 531 33,600 2,177 Climbing Los Angeles Center
Sat 12:13:49 PM 32.7361 -115.6447 84° East 455 524 35,000 1,355 Climbing Los Angeles Center
Sat 12:14:51 PM 32.7503 -115.4961 83° East 454 522 36,400 976 Climbing Los Angeles Center
Sat 12:15:52 PM 32.7542 -115.3464 88° East 456 525 37,000 293 Climbing Los Angeles Center
Sat 12:16:54 PM 32.7589 -115.1928 88° East 465 535 37,000  Level Los Angeles Center
Sat 12:17:56 PM 32.7617 -115.0428 89° East 457 526 37,000  Level Los Angeles Center
Sat 12:18:58 PM 32.7672 -114.8931 87° East 454 522 37,000  Level Los Angeles Center
Sat 12:19:59 PM 32.7683 -114.7117 90° East 458 527 37,000  Level Los Angeles Center
Sat 12:21:01 PM 32.7703 -114.5606 89° East 458 527 37,000  Level Los Angeles Center
Sat 12:22:03 PM 32.7731 -114.4111 89° East 456 525 37,000  Level Los Angeles Center
Sat 12:23:05 PM 32.7744 -114.2603 89° East 456 525 37,000  Level Los Angeles Center
Sat 12:24:06 PM 32.7775 -114.1097 89° East 456 525 37,000  Level Los Angeles Center
Sat 12:24:22 PM 32.7764 -114.0681 92° East 457 526 37,000  Level Albuquerque Center
Sat 12:25:23 PM 32.7828 -113.9197 87° East 453 521 37,000  Level Albuquerque Center
Sat 12:26:25 PM 32.8053 -113.7733 80° East 449 517 37,000  Level Albuquerque Center
Sat 12:27:27 PM 32.8253 -113.6269 81° East 449 517 37,000  Level Albuquerque Center
Sat 12:28:29 PM 32.8511 -113.4500 80° East 451 519 37,000  Level Albuquerque Center
Sat 12:29:30 PM 32.8717 -113.3011 81° East 452 520 37,000  Level Albuquerque Center
Sat 12:30:32 PM 32.8925 -113.1519 81° East 454 522 37,000  Level Albuquerque Center
Sat 12:31:34 PM 32.9119 -113.0036 81° East 452 520 37,000  Level Albuquerque Center
Sat 12:32:36 PM 32.9325 -112.8556 81° East 451 519 37,000  Level Albuquerque Center
Sat 12:33:38 PM 32.9511 -112.7075 81° East 450 518 37,000  Level Albuquerque Center
Sat 12:34:39 PM 32.9381 -112.5558 96° East 473 544 37,000  Level Albuquerque Center
Sat 12:35:41 PM 32.9150 -112.4025 100° East 471 542 37,000  Level Albuquerque Center
Sat 12:36:43 PM 32.8872 -112.2214 100° East 464 534 37,000  Level Albuquerque Center
Sat 12:37:45 PM 32.8653 -112.0753 100° East 463 533 37,000  Level Albuquerque Center
Sat 12:38:47 PM 32.8425 -111.9283 100° East 458 527 37,000  Level Albuquerque Center
Sat 12:39:48 PM 32.8183 -111.7789 101° East 461 531 37,000  Level Albuquerque Center
Sat 12:40:50 PM 32.7956 -111.6331 100° East 454 522 37,000  Level Albuquerque Center
Sat 12:41:52 PM 32.7717 -111.4881 101° East 451 519 37,000  Level Albuquerque Center
Sat 12:42:54 PM 32.7442 -111.3139 101° East 450 518 37,000  Level Albuquerque Center
Sat 12:43:56 PM 32.7206 -111.1689 101° East 449 517 37,000  Level Albuquerque Center
Sat 12:44:58 PM 32.6958 -111.0247 101° East 448 516 37,000  Level Albuquerque Center
Sat 12:46:00 PM 32.6725 -110.8778 101° East 452 520 37,000  Level Albuquerque Center
Sat 12:47:02 PM 32.6486 -110.7350 101° East 447 514 37,000  Level Albuquerque Center
Sat 12:48:04 PM 32.6250 -110.5900 101° East 448 516 37,000 390 Level Albuquerque Center
Sat 12:49:05 PM 32.5964 -110.4147 101° East 450 518 37,800 927 Climbing Albuquerque Center
Sat 12:50:07 PM 32.5700 -110.2733 102° East 450 518 38,900 581 Climbing Albuquerque Center
Sat 12:51:09 PM 32.5458 -110.1308 101° East 447 514 39,000 48 Climbing Albuquerque Center
Sat 12:52:11 PM 32.5200 -109.9864 102° East 451 519 39,000  Level Albuquerque Center
Sat 12:53:13 PM 32.4950 -109.8428 102° East 452 520 39,000  Level Albuquerque Center
Sat 12:54:15 PM 32.4647 -109.6719 102° East 449 517 39,000  Level Albuquerque Center
Sat 12:55:17 PM 32.4372 -109.5256 103° East 456 525 39,000  Level Albuquerque Center
Sat 12:56:19 PM 32.4122 -109.3831 102° East 451 519 39,000  Level Albuquerque Center
Sat 12:57:21 PM 32.3872 -109.2406 102° East 449 517 39,000  Level Albuquerque Center
Sat 12:58:23 PM 32.3553 -109.0678 102° East 452 520 39,000  Level Albuquerque Center
Sat 12:59:25 PM 32.3294 -108.9247 102° East 453 521 39,000  Level Albuquerque Center
Sat 01:00:27 PM 32.3025 -108.7794 102° East 456 525 39,000  Level Albuquerque Center
Sat 01:01:29 PM 32.2761 -108.6350 102° East 456 525 39,000  Level Albuquerque Center
Sat 01:02:31 PM 32.2444 -108.4592 102° East 460 529 39,000  Level Albuquerque Center
Sat 01:03:33 PM 32.2186 -108.3247 103° East 464 534 39,000  Level Albuquerque Center
Sat 01:04:35 PM 32.1900 -108.1767 103° East 465 535 39,000  Level Albuquerque Center
Sat 01:05:37 PM 32.1561 -107.9981 103° East 467 537 39,000  Level Albuquerque Center
Sat 01:06:39 PM 32.1281 -107.8469 102° East 472 543 39,000  Level Albuquerque Center
Sat 01:07:41 PM 32.0994 -107.6958 103° East 474 545 39,000  Level Albuquerque Center
Sat 01:08:43 PM 32.0703 -107.5456 103° East 476 548 39,000  Level Albuquerque Center
Sat 01:09:45 PM 32.0406 -107.3947 103° East 476 548 39,000  Level Albuquerque Center
Sat 01:10:47 PM 32.0053 -107.2136 103° East 478 550 39,000  Level Albuquerque Center
Sat 01:11:49 PM 31.9764 -107.0639 103° East 475 547 39,000  Level Albuquerque Center
Sat 01:12:51 PM 31.9461 -106.9172 104° East 468 539 39,000  Level Albuquerque Center
Sat 01:13:53 PM 31.9169 -106.7700 103° East 466 536 39,000  Level Albuquerque Center
Sat 01:14:55 PM 31.8858 -106.6233 104° East 465 535 39,000  Level Albuquerque Center
Sat 01:15:57 PM 31.8522 -106.4522 103° East 468 539 39,000  Level Albuquerque Center
Sat 01:16:59 PM 31.8219 -106.3036 103° East 469 540 39,000  Level Albuquerque Center
Sat 01:18:01 PM 31.8003 -106.1556 100° East 460 529 39,000  Level Albuquerque Center
Sat 01:19:04 PM 31.7822 -106.0075 98° East 459 528 39,000  Level Albuquerque Center
Sat 01:20:06 PM 31.7639 -105.8592 98° East 459 528 39,000  Level Albuquerque Center
Sat 01:21:08 PM 31.7428 -105.6811 98° East 459 528 39,000  Level Albuquerque Center
Sat 01:22:10 PM 31.7247 -105.5314 98° East 463 533 39,000  Level Albuquerque Center
Sat 01:23:12 PM 31.7058 -105.3825 98° East 462 532 39,000  Level Albuquerque Center
Sat 01:24:14 PM 31.6872 -105.2328 98° East 462 532 39,000  Level Albuquerque Center
Sat 01:25:16 PM 31.6683 -105.0825 98° East 463 533 39,000  Level Albuquerque Center
Sat 01:26:18 PM 31.6500 -104.9317 98° East 466 536 39,000  Level Albuquerque Center
Sat 01:27:20 PM 31.6306 -104.7786 98° East 469 540 39,000  Level Albuquerque Center
Sat 01:28:22 PM 31.6072 -104.5969 99° East 469 540 39,000  Level Albuquerque Center
Sat 01:29:24 PM 31.5872 -104.4453 99° East 469 540 39,000  Level Albuquerque Center
Sat 01:30:26 PM 31.5669 -104.2944 99° East 469 540 39,000  Level Albuquerque Center
Sat 01:31:28 PM 31.5472 -104.1422 99° East 470 541 39,000  Level Albuquerque Center
Sat 01:32:30 PM 31.5272 -103.9914 99° East 470 541 39,000  Level Albuquerque Center
Sat 01:33:32 PM 31.5078 -103.8408 99° East 468 539 39,000  Level Albuquerque Center
Sat 01:34:34 PM 31.4819 -103.6597 99° East 473 544 39,000  Level Albuquerque Center
Sat 01:35:36 PM 31.4600 -103.5067 100° East 476 548 39,000  Level Albuquerque Center
Sat 01:36:38 PM 31.4411 -103.3506 98° East 481 554 39,000  Level Albuquerque Center
Sat 01:37:40 PM 31.4231 -103.1950 98° East 483 556 39,000  Level Albuquerque Center
Sat 01:38:42 PM 31.4025 -103.0403 99° East 484 557 39,000  Level Albuquerque Center
Sat 01:39:44 PM 31.3831 -102.8850 98° East 484 557 39,000  Level Albuquerque Center
Sat 01:40:46 PM 31.3597 -102.6992 98° East 482 555 39,000  Level Albuquerque Center
Sat 01:41:48 PM 31.3397 -102.5461 99° East 479 551 39,000  Level Albuquerque Center
Sat 01:42:50 PM 31.3214 -102.3969 98° East 488 562 39,000  Level Albuquerque Center
Sat 01:43:52 PM 31.3000 -102.2439 99° East 484 557 39,000  Level Albuquerque Center
Sat 01:44:54 PM 31.2758 -102.0586 99° East 483 556 39,000  Level Albuquerque Center
Sat 01:45:56 PM 31.2556 -101.9100 99° East 483 556 39,000  Level Albuquerque Center
Sat 01:46:58 PM 31.2347 -101.7547 99° East 483 556 39,000  Level Albuquerque Center
Sat 01:48:36 PM 31.2008 -101.5058 99° East 485 558 39,000  Level Houston Center
Sat 01:49:38 PM 31.1794 -101.3486 99° East 489 563 39,000  Level Houston Center
Sat 01:50:40 PM 31.1567 -101.1886 99° East 491 565 39,000  Level Houston Center
Sat 01:51:42 PM 31.1300 -100.9969 99° East 497 572 39,000  Level Houston Center
Sat 01:52:44 PM 31.1075 -100.8375 99° East 497 572 39,000  Level Houston Center
Sat 01:53:46 PM 31.0847 -100.6764 99° East 501 577 39,000  Level Houston Center
Sat 01:54:48 PM 31.0606 -100.5156 100° East 501 577 39,000  Level Houston Center
Sat 01:55:50 PM 31.0367 -100.3519 100° East 507 583 39,000  Level Houston Center
Sat 01:56:52 PM 31.0131 -100.1908 100° East 505 581 39,000  Level Houston Center
Sat 01:57:54 PM 30.9886 -100.0278 100° East 508 585 39,000  Level Houston Center
Sat 01:58:56 PM 30.9589 -99.8342 100° East 506 582 39,000  Level Houston Center
Sat 01:59:58 PM 30.9361 -99.6742 99° East 502 578 39,000  Level Houston Center
Sat 02:01:00 PM 30.9194 -99.5117 97° East 504 580 39,000  Level Houston Center
Sat 02:02:02 PM 30.9011 -99.3486 97° East 507 583 39,000  Level Houston Center
Sat 02:03:04 PM 30.8836 -99.1872 97° East 504 580 39,000  Level Houston Center
Sat 02:04:06 PM 30.8644 -99.0186 98° East 504 580 39,000  Level Houston Center
Sat 02:05:08 PM 30.8489 -98.8564 96° East 503 579 39,000  Level Houston Center
Sat 02:06:10 PM 30.8250 -98.6647 98° East 507 583 39,000 -968 Level Houston Center
Sat 02:07:12 PM 30.8058 -98.5014 98° East 506 582 37,000 -1,935 Descending Houston Center
Sat 02:08:14 PM 30.7875 -98.3389 97° East 503 579 35,000 -968 Descending Houston Center
Sat 02:09:16 PM 30.7686 -98.1753 98° East 506 582 35,000  Level Houston Center
Sat 02:10:18 PM 30.7503 -98.0111 97° East 508 585 35,000  Level Houston Center
Sat 02:11:20 PM 30.7308 -97.8478 98° East 508 585 35,000  Level Houston Center
Sat 02:12:22 PM 30.7097 -97.6836 98° East 509 586 35,000  Level Houston Center
Sat 02:13:24 PM 30.6872 -97.4939 98° East 510 587 35,000 -339 Level Houston Center
Sat 02:14:26 PM 30.6681 -97.3347 98° East 501 577 34,300 -2,129 Descending Houston Center
Sat 02:15:28 PM 30.6386 -97.1786 102° East 496 571 30,600 -2,928 Descending Houston Center
Sat 02:16:31 PM 30.5786 -97.0406 117° Southeast 480 552 28,200 -2,371 Descending Houston Center
Sat 02:17:32 PM 30.5192 -96.9047 117° Southeast 472 543 25,700 -3,024 Descending Houston Center
Sat 02:18:34 PM 30.4500 -96.7481 117° Southeast 465 535 22,000 -3,048 Descending Houston Center
Sat 02:19:36 PM 30.3928 -96.6231 118° Southeast 436 502 19,400 -2,323 Descending Houston Center
Sat 02:20:38 PM 30.3397 -96.5028 117° Southeast 416 479 17,200 -2,348 Descending Houston Center
Sat 02:21:31 PM 30.2958 -96.4036 117° Southeast 384 442 14,900 -2,208 Descending Houston Center
Sat 02:22:43 PM 30.2442 -96.2911 118° Southeast 355 409 12,600 -1,746 Descending Houston Center
Sat 02:23:45 PM 30.1922 -96.2000 123° Southeast 333 383 11,000 -774 Descending Houston Center
Sat 02:24:47 PM 30.1122 -96.1578 155° Southeast 326 375 11,000  Level Houston Center
Sat 02:25:49 PM 30.0144 -96.1042 155° Southeast 322 371 11,000 -48 Level Houston Center
Sat 02:26:51 PM 29.9344 -96.0625 156° South 318 366 10,900 -48 Descending Houston Center
Sat 02:27:53 PM 29.8561 -96.0203 155° Southeast 312 359 10,900 -246 Level Houston Center
Sat 02:28:53 PM 29.7703 -95.9756 156° South 311 358 10,400 -432 Descending Houston Center
Sat 02:29:58 PM 29.6947 -95.9197 147° Southeast 302 348 10,000 -803 Descending Houston Center
Sat 02:31:00 PM 29.6322 -95.8678 144° Southeast 283 326 8,700 -1,355 Descending Houston Center
Sat 02:32:02 PM 29.6003 -95.7839 114° Southeast 286 329 7,200 -1,258 Descending Houston Center
Sat 02:33:04 PM 29.5697 -95.7047 114° Southeast 275 316 6,100 -629 Descending Houston Center
Sat 02:34:06 PM 29.5372 -95.6181 113° Southeast 262 302 5,900 -341 Descending Houston Center
Sat 02:35:07 PM 29.5114 -95.5417 111° Southeast 234 269 5,400 -537 Descending Houston Center
Sat 02:36:09 PM 29.5053 -95.4728 96° East 194 223 4,800 -912 Descending Houston Center
Sat 02:37:12 PM 29.5236 -95.4186 69° East 194 223 3,500 -1,282 Descending Houston Center
Sat 02:38:06 PM 29.5553 -95.3756 50° Northeast 184 212 2,300 -1,148 Descending Houston Center
Sat 02:39:07 PM 29.5894 -95.3378 44° Northeast 153 176 1,300 -836 Descending Houston Center
Sat 02:40:08 PM 29.6183 -95.3081 42° Northeast 133 153 600 15,090 Descending Houston Center
Sat 02:41:21 PM 29.6478 -95.2758 44° Northeast 141 162 35,000 28,274 Climbing Houston Center
Sat 02:43:00 PM 29.6454 -95.2789 115° Southeast  Level Estimated

Login

Don't have an account? Register now (free) for customized features, flight alerts, and more!